sensor_id;sensor_type;location;lat;lon;timestamp;P1;durP1;ratioP1;P2;durP2;ratioP2
20245;SDS011;10281;54.406;18.556;2022-12-18T00:02:02;34.23;;;19.93;;
20245;SDS011;10281;54.406;18.556;2022-12-18T00:04:29;34.33;;;19.50;;
20245;SDS011;10281;54.406;18.556;2022-12-18T00:06:55;39.73;;;21.40;;
20245;SDS011;10281;54.406;18.556;2022-12-18T00:09:22;39.90;;;20.20;;
20245;SDS011;10281;54.406;18.556;2022-12-18T00:11:49;35.83;;;20.70;;
20245;SDS011;10281;54.406;18.556;2022-12-18T00:14:16;36.77;;;20.40;;
20245;SDS011;10281;54.406;18.556;2022-12-18T00:16:43;38.93;;;21.37;;
20245;SDS011;10281;54.406;18.556;2022-12-18T00:19:11;40.83;;;21.97;;
20245;SDS011;10281;54.406;18.556;2022-12-18T00:21:39;49.77;;;24.03;;
20245;SDS011;10281;54.406;18.556;2022-12-18T00:24:07;52.23;;;24.80;;
20245;SDS011;10281;54.406;18.556;2022-12-18T00:26:34;47.70;;;24.20;;
20245;SDS011;10281;54.406;18.556;2022-12-18T00:29:16;47.70;;;24.17;;
20245;SDS011;10281;54.406;18.556;2022-12-18T00:31:43;50.67;;;25.23;;
20245;SDS011;10281;54.406;18.556;2022-12-18T00:34:10;41.63;;;21.03;;
20245;SDS011;10281;54.406;18.556;2022-12-18T00:36:38;42.47;;;20.60;;
20245;SDS011;10281;54.406;18.556;2022-12-18T00:39:06;42.10;;;21.00;;
20245;SDS011;10281;54.406;18.556;2022-12-18T00:41:33;39.43;;;20.23;;
20245;SDS011;10281;54.406;18.556;2022-12-18T00:44:06;36.83;;;20.53;;
20245;SDS011;10281;54.406;18.556;2022-12-18T00:46:35;37.43;;;20.00;;
20245;SDS011;10281;54.406;18.556;2022-12-18T00:49:02;36.27;;;18.33;;
20245;SDS011;10281;54.406;18.556;2022-12-18T00:51:29;35.07;;;18.23;;
20245;SDS011;10281;54.406;18.556;2022-12-18T00:53:55;36.20;;;20.27;;
20245;SDS011;10281;54.406;18.556;2022-12-18T00:56:22;40.00;;;20.20;;
20245;SDS011;10281;54.406;18.556;2022-12-18T00:58:49;34.73;;;18.17;;
20245;SDS011;10281;54.406;18.556;2022-12-18T01:01:16;35.13;;;17.97;;
20245;SDS011;10281;54.406;18.556;2022-12-18T01:03:43;36.57;;;18.13;;
20245;SDS011;10281;54.406;18.556;2022-12-18T01:06:13;36.17;;;18.43;;
20245;SDS011;10281;54.406;18.556;2022-12-18T01:08:41;36.50;;;17.70;;
20245;SDS011;10281;54.406;18.556;2022-12-18T01:11:08;36.87;;;17.60;;
20245;SDS011;10281;54.406;18.556;2022-12-18T01:13:37;34.33;;;17.67;;
20245;SDS011;10281;54.406;18.556;2022-12-18T01:16:05;36.27;;;18.20;;
20245;SDS011;10281;54.406;18.556;2022-12-18T01:18:32;35.53;;;16.70;;
20245;SDS011;10281;54.406;18.556;2022-12-18T01:20:58;36.57;;;17.73;;
20245;SDS011;10281;54.406;18.556;2022-12-18T01:23:25;37.17;;;18.60;;
20245;SDS011;10281;54.406;18.556;2022-12-18T01:25:52;38.33;;;18.83;;
20245;SDS011;10281;54.406;18.556;2022-12-18T01:28:18;36.60;;;17.27;;
20245;SDS011;10281;54.406;18.556;2022-12-18T01:30:46;35.60;;;18.33;;
20245;SDS011;10281;54.406;18.556;2022-12-18T01:33:12;33.23;;;16.80;;
20245;SDS011;10281;54.406;18.556;2022-12-18T01:35:41;34.93;;;18.50;;
20245;SDS011;10281;54.406;18.556;2022-12-18T01:38:08;34.47;;;18.33;;
20245;SDS011;10281;54.406;18.556;2022-12-18T01:40:35;33.63;;;17.13;;
20245;SDS011;10281;54.406;18.556;2022-12-18T01:43:03;35.07;;;17.20;;
20245;SDS011;10281;54.406;18.556;2022-12-18T01:45:30;36.13;;;17.93;;
20245;SDS011;10281;54.406;18.556;2022-12-18T01:48:00;34.57;;;17.57;;
20245;SDS011;10281;54.406;18.556;2022-12-18T01:50:33;36.43;;;18.80;;
20245;SDS011;10281;54.406;18.556;2022-12-18T01:53:17;35.57;;;18.10;;
20245;SDS011;10281;54.406;18.556;2022-12-18T01:55:49;35.43;;;17.93;;
20245;SDS011;10281;54.406;18.556;2022-12-18T01:58:19;36.27;;;17.33;;
20245;SDS011;10281;54.406;18.556;2022-12-18T02:00:48;36.73;;;17.37;;
20245;SDS011;10281;54.406;18.556;2022-12-18T02:03:14;39.10;;;18.83;;
20245;SDS011;10281;54.406;18.556;2022-12-18T02:05:46;37.43;;;18.97;;
20245;SDS011;10281;54.406;18.556;2022-12-18T02:08:17;35.23;;;17.90;;
20245;SDS011;10281;54.406;18.556;2022-12-18T02:10:54;37.37;;;19.63;;
20245;SDS011;10281;54.406;18.556;2022-12-18T02:13:34;39.63;;;18.37;;
20245;SDS011;10281;54.406;18.556;2022-12-18T02:16:08;36.57;;;17.53;;
20245;SDS011;10281;54.406;18.556;2022-12-18T02:18:37;39.53;;;18.13;;
20245;SDS011;10281;54.406;18.556;2022-12-18T02:21:12;35.90;;;17.10;;
20245;SDS011;10281;54.406;18.556;2022-12-18T02:23:52;32.87;;;17.80;;
20245;SDS011;10281;54.406;18.556;2022-12-18T02:26:30;34.90;;;17.77;;
20245;SDS011;10281;54.406;18.556;2022-12-18T02:29:03;34.40;;;17.53;;
20245;SDS011;10281;54.406;18.556;2022-12-18T02:31:39;34.97;;;17.27;;
20245;SDS011;10281;54.406;18.556;2022-12-18T02:34:08;36.60;;;17.93;;
20245;SDS011;10281;54.406;18.556;2022-12-18T02:36:38;36.13;;;17.77;;
20245;SDS011;10281;54.406;18.556;2022-12-18T02:39:07;34.97;;;17.90;;
20245;SDS011;10281;54.406;18.556;2022-12-18T02:41:36;35.87;;;17.73;;
20245;SDS011;10281;54.406;18.556;2022-12-18T02:44:07;34.67;;;18.10;;
20245;SDS011;10281;54.406;18.556;2022-12-18T02:46:37;31.47;;;18.17;;
20245;SDS011;10281;54.406;18.556;2022-12-18T02:49:12;34.20;;;17.77;;
20245;SDS011;10281;54.406;18.556;2022-12-18T02:54:36;34.00;;;17.87;;
20245;SDS011;10281;54.406;18.556;2022-12-18T03:00:12;32.83;;;15.33;;
20245;SDS011;10281;54.406;18.556;2022-12-18T03:02:48;30.27;;;15.83;;
20245;SDS011;10281;54.406;18.556;2022-12-18T03:05:21;32.07;;;16.23;;
20245;SDS011;10281;54.406;18.556;2022-12-18T03:07:53;32.77;;;15.33;;
20245;SDS011;10281;54.406;18.556;2022-12-18T03:10:25;35.83;;;16.47;;
20245;SDS011;10281;54.406;18.556;2022-12-18T03:12:57;31.13;;;16.87;;
20245;SDS011;10281;54.406;18.556;2022-12-18T03:15:31;35.10;;;16.60;;
20245;SDS011;10281;54.406;18.556;2022-12-18T03:18:04;32.70;;;16.10;;
20245;SDS011;10281;54.406;18.556;2022-12-18T03:20:34;29.63;;;16.17;;
20245;SDS011;10281;54.406;18.556;2022-12-18T03:23:06;27.63;;;14.37;;
20245;SDS011;10281;54.406;18.556;2022-12-18T03:25:34;28.60;;;14.93;;
20245;SDS011;10281;54.406;18.556;2022-12-18T03:28:04;29.47;;;14.87;;
20245;SDS011;10281;54.406;18.556;2022-12-18T03:30:34;26.37;;;13.60;;
20245;SDS011;10281;54.406;18.556;2022-12-18T03:33:06;24.57;;;14.03;;
20245;SDS011;10281;54.406;18.556;2022-12-18T03:35:37;28.40;;;14.73;;
20245;SDS011;10281;54.406;18.556;2022-12-18T03:38:06;23.67;;;13.17;;
20245;SDS011;10281;54.406;18.556;2022-12-18T03:40:35;27.97;;;13.67;;
20245;SDS011;10281;54.406;18.556;2022-12-18T03:43:09;27.37;;;13.83;;
20245;SDS011;10281;54.406;18.556;2022-12-18T03:45:38;23.50;;;12.50;;
20245;SDS011;10281;54.406;18.556;2022-12-18T03:48:09;26.20;;;13.43;;
20245;SDS011;10281;54.406;18.556;2022-12-18T03:50:56;27.70;;;13.97;;
20245;SDS011;10281;54.406;18.556;2022-12-18T03:53:36;27.53;;;13.60;;
20245;SDS011;10281;54.406;18.556;2022-12-18T03:56:08;24.57;;;12.80;;
20245;SDS011;10281;54.406;18.556;2022-12-18T03:58:36;26.23;;;13.63;;
20245;SDS011;10281;54.406;18.556;2022-12-18T04:01:05;26.50;;;13.43;;
20245;SDS011;10281;54.406;18.556;2022-12-18T04:03:34;26.90;;;13.97;;
20245;SDS011;10281;54.406;18.556;2022-12-18T04:06:02;23.73;;;11.63;;
20245;SDS011;10281;54.406;18.556;2022-12-18T04:08:31;27.63;;;12.90;;
20245;SDS011;10281;54.406;18.556;2022-12-18T04:11:00;20.57;;;11.63;;
20245;SDS011;10281;54.406;18.556;2022-12-18T04:13:28;25.60;;;12.77;;
20245;SDS011;10281;54.406;18.556;2022-12-18T04:15:57;21.40;;;11.37;;
20245;SDS011;10281;54.406;18.556;2022-12-18T04:18:24;21.07;;;12.00;;
20245;SDS011;10281;54.406;18.556;2022-12-18T04:20:50;22.23;;;12.00;;
20245;SDS011;10281;54.406;18.556;2022-12-18T04:23:17;23.50;;;12.07;;
20245;SDS011;10281;54.406;18.556;2022-12-18T04:25:44;22.87;;;11.93;;
20245;SDS011;10281;54.406;18.556;2022-12-18T04:28:11;19.40;;;10.83;;
20245;SDS011;10281;54.406;18.556;2022-12-18T04:30:37;20.33;;;10.63;;
20245;SDS011;10281;54.406;18.556;2022-12-18T04:33:07;23.47;;;12.33;;
20245;SDS011;10281;54.406;18.556;2022-12-18T04:35:38;34.77;;;26.10;;
20245;SDS011;10281;54.406;18.556;2022-12-18T04:38:05;21.33;;;11.80;;
20245;SDS011;10281;54.406;18.556;2022-12-18T04:40:34;21.73;;;11.83;;
20245;SDS011;10281;54.406;18.556;2022-12-18T04:43:01;19.03;;;10.20;;
20245;SDS011;10281;54.406;18.556;2022-12-18T04:45:27;18.07;;;10.67;;
20245;SDS011;10281;54.406;18.556;2022-12-18T04:47:56;20.87;;;10.73;;
20245;SDS011;10281;54.406;18.556;2022-12-18T04:50:24;18.73;;;10.47;;
20245;SDS011;10281;54.406;18.556;2022-12-18T04:52:51;19.53;;;10.23;;
20245;SDS011;10281;54.406;18.556;2022-12-18T04:55:18;19.37;;;11.53;;
20245;SDS011;10281;54.406;18.556;2022-12-18T04:57:45;17.27;;;9.60;;
20245;SDS011;10281;54.406;18.556;2022-12-18T05:00:12;18.40;;;9.83;;
20245;SDS011;10281;54.406;18.556;2022-12-18T05:02:39;18.43;;;9.87;;
20245;SDS011;10281;54.406;18.556;2022-12-18T05:05:06;15.40;;;9.60;;
20245;SDS011;10281;54.406;18.556;2022-12-18T05:07:33;19.37;;;10.53;;
20245;SDS011;10281;54.406;18.556;2022-12-18T05:09:59;17.77;;;9.97;;
20245;SDS011;10281;54.406;18.556;2022-12-18T05:12:26;17.40;;;10.17;;
20245;SDS011;10281;54.406;18.556;2022-12-18T05:14:53;16.37;;;9.43;;
20245;SDS011;10281;54.406;18.556;2022-12-18T05:17:19;18.30;;;10.77;;
20245;SDS011;10281;54.406;18.556;2022-12-18T05:19:46;19.37;;;9.60;;
20245;SDS011;10281;54.406;18.556;2022-12-18T05:22:13;15.70;;;9.10;;
20245;SDS011;10281;54.406;18.556;2022-12-18T05:24:39;16.43;;;9.03;;
20245;SDS011;10281;54.406;18.556;2022-12-18T05:27:06;14.80;;;8.93;;
20245;SDS011;10281;54.406;18.556;2022-12-18T05:29:32;18.60;;;9.17;;
20245;SDS011;10281;54.406;18.556;2022-12-18T05:31:59;15.93;;;8.70;;
20245;SDS011;10281;54.406;18.556;2022-12-18T05:34:26;12.93;;;8.43;;
20245;SDS011;10281;54.406;18.556;2022-12-18T05:36:52;18.27;;;8.37;;
20245;SDS011;10281;54.406;18.556;2022-12-18T05:39:19;16.00;;;9.07;;
20245;SDS011;10281;54.406;18.556;2022-12-18T05:41:45;15.43;;;8.40;;
20245;SDS011;10281;54.406;18.556;2022-12-18T05:44:12;14.30;;;8.77;;
20245;SDS011;10281;54.406;18.556;2022-12-18T05:46:41;20.77;;;9.37;;
20245;SDS011;10281;54.406;18.556;2022-12-18T05:49:07;14.73;;;8.57;;
20245;SDS011;10281;54.406;18.556;2022-12-18T05:51:34;15.13;;;8.87;;
20245;SDS011;10281;54.406;18.556;2022-12-18T05:54:01;14.10;;;8.77;;
20245;SDS011;10281;54.406;18.556;2022-12-18T05:56:27;14.27;;;8.60;;
20245;SDS011;10281;54.406;18.556;2022-12-18T05:58:54;14.70;;;8.83;;
20245;SDS011;10281;54.406;18.556;2022-12-18T06:01:22;16.90;;;9.40;;
20245;SDS011;10281;54.406;18.556;2022-12-18T06:03:51;17.27;;;9.60;;
20245;SDS011;10281;54.406;18.556;2022-12-18T06:06:20;17.80;;;9.37;;
20245;SDS011;10281;54.406;18.556;2022-12-18T06:08:49;17.23;;;9.47;;
20245;SDS011;10281;54.406;18.556;2022-12-18T06:11:18;15.27;;;9.13;;
20245;SDS011;10281;54.406;18.556;2022-12-18T06:13:49;15.33;;;9.20;;
20245;SDS011;10281;54.406;18.556;2022-12-18T06:16:20;15.10;;;8.73;;
20245;SDS011;10281;54.406;18.556;2022-12-18T06:18:47;15.83;;;8.33;;
20245;SDS011;10281;54.406;18.556;2022-12-18T06:21:14;16.37;;;9.27;;
20245;SDS011;10281;54.406;18.556;2022-12-18T06:23:40;20.83;;;9.00;;
20245;SDS011;10281;54.406;18.556;2022-12-18T06:26:08;14.57;;;8.80;;
20245;SDS011;10281;54.406;18.556;2022-12-18T06:28:37;16.10;;;9.33;;
20245;SDS011;10281;54.406;18.556;2022-12-18T06:31:04;17.20;;;9.67;;
20245;SDS011;10281;54.406;18.556;2022-12-18T06:33:32;15.77;;;9.83;;
20245;SDS011;10281;54.406;18.556;2022-12-18T06:36:01;18.23;;;9.57;;
20245;SDS011;10281;54.406;18.556;2022-12-18T06:38:31;19.60;;;10.37;;
20245;SDS011;10281;54.406;18.556;2022-12-18T06:40:59;17.70;;;10.27;;
20245;SDS011;10281;54.406;18.556;2022-12-18T06:43:26;17.63;;;9.97;;
20245;SDS011;10281;54.406;18.556;2022-12-18T06:45:57;16.00;;;10.17;;
20245;SDS011;10281;54.406;18.556;2022-12-18T06:48:25;17.20;;;10.40;;
20245;SDS011;10281;54.406;18.556;2022-12-18T06:50:52;18.27;;;10.17;;
20245;SDS011;10281;54.406;18.556;2022-12-18T06:53:18;15.53;;;10.43;;
20245;SDS011;10281;54.406;18.556;2022-12-18T06:55:45;18.87;;;11.13;;
20245;SDS011;10281;54.406;18.556;2022-12-18T06:58:12;17.53;;;10.33;;
20245;SDS011;10281;54.406;18.556;2022-12-18T07:00:38;17.27;;;10.60;;
20245;SDS011;10281;54.406;18.556;2022-12-18T07:03:05;19.90;;;11.43;;
20245;SDS011;10281;54.406;18.556;2022-12-18T07:05:32;20.03;;;11.80;;
20245;SDS011;10281;54.406;18.556;2022-12-18T07:07:58;19.93;;;11.40;;
20245;SDS011;10281;54.406;18.556;2022-12-18T07:10:25;21.33;;;11.20;;
20245;SDS011;10281;54.406;18.556;2022-12-18T07:12:52;19.83;;;11.07;;
20245;SDS011;10281;54.406;18.556;2022-12-18T07:15:19;25.43;;;12.30;;
20245;SDS011;10281;54.406;18.556;2022-12-18T07:17:45;19.17;;;12.60;;
20245;SDS011;10281;54.406;18.556;2022-12-18T07:20:12;21.67;;;13.00;;
20245;SDS011;10281;54.406;18.556;2022-12-18T07:22:38;32.57;;;17.07;;
20245;SDS011;10281;54.406;18.556;2022-12-18T07:25:05;24.53;;;14.13;;
20245;SDS011;10281;54.406;18.556;2022-12-18T07:27:33;21.13;;;13.27;;
20245;SDS011;10281;54.406;18.556;2022-12-18T07:29:59;23.50;;;14.03;;
20245;SDS011;10281;54.406;18.556;2022-12-18T07:32:26;24.77;;;14.93;;
20245;SDS011;10281;54.406;18.556;2022-12-18T07:34:52;24.33;;;14.20;;
20245;SDS011;10281;54.406;18.556;2022-12-18T07:37:19;25.57;;;13.17;;
20245;SDS011;10281;54.406;18.556;2022-12-18T07:39:46;22.63;;;14.10;;
20245;SDS011;10281;54.406;18.556;2022-12-18T07:42:12;25.60;;;13.37;;
20245;SDS011;10281;54.406;18.556;2022-12-18T07:44:45;23.27;;;13.30;;
20245;SDS011;10281;54.406;18.556;2022-12-18T07:47:11;23.57;;;13.80;;
20245;SDS011;10281;54.406;18.556;2022-12-18T07:49:38;22.60;;;12.43;;
20245;SDS011;10281;54.406;18.556;2022-12-18T07:52:04;24.47;;;13.70;;
20245;SDS011;10281;54.406;18.556;2022-12-18T07:54:31;22.83;;;12.97;;
20245;SDS011;10281;54.406;18.556;2022-12-18T07:56:58;23.93;;;13.07;;
20245;SDS011;10281;54.406;18.556;2022-12-18T07:59:26;22.40;;;13.00;;
20245;SDS011;10281;54.406;18.556;2022-12-18T08:01:53;21.63;;;12.67;;
20245;SDS011;10281;54.406;18.556;2022-12-18T08:04:19;23.50;;;12.97;;
20245;SDS011;10281;54.406;18.556;2022-12-18T08:06:46;23.47;;;12.83;;
20245;SDS011;10281;54.406;18.556;2022-12-18T08:09:13;20.17;;;13.03;;
20245;SDS011;10281;54.406;18.556;2022-12-18T08:11:39;22.23;;;14.40;;
20245;SDS011;10281;54.406;18.556;2022-12-18T08:14:06;20.03;;;13.50;;
20245;SDS011;10281;54.406;18.556;2022-12-18T08:16:32;25.67;;;14.20;;
20245;SDS011;10281;54.406;18.556;2022-12-18T08:18:59;23.83;;;13.40;;
20245;SDS011;10281;54.406;18.556;2022-12-18T08:21:27;22.10;;;14.33;;
20245;SDS011;10281;54.406;18.556;2022-12-18T08:23:55;20.60;;;13.43;;
20245;SDS011;10281;54.406;18.556;2022-12-18T08:26:24;23.70;;;13.83;;
20245;SDS011;10281;54.406;18.556;2022-12-18T08:28:53;26.17;;;14.13;;
20245;SDS011;10281;54.406;18.556;2022-12-18T08:31:21;21.83;;;13.27;;
20245;SDS011;10281;54.406;18.556;2022-12-18T08:33:49;26.60;;;14.43;;
20245;SDS011;10281;54.406;18.556;2022-12-18T08:36:17;25.17;;;13.83;;
20245;SDS011;10281;54.406;18.556;2022-12-18T08:38:44;26.87;;;14.97;;
20245;SDS011;10281;54.406;18.556;2022-12-18T08:41:12;22.27;;;13.37;;
20245;SDS011;10281;54.406;18.556;2022-12-18T08:43:41;25.03;;;14.03;;
20245;SDS011;10281;54.406;18.556;2022-12-18T08:46:14;25.73;;;14.37;;
20245;SDS011;10281;54.406;18.556;2022-12-18T08:48:41;25.77;;;15.43;;
20245;SDS011;10281;54.406;18.556;2022-12-18T08:51:07;24.13;;;13.83;;
20245;SDS011;10281;54.406;18.556;2022-12-18T08:53:37;55.23;;;25.83;;
20245;SDS011;10281;54.406;18.556;2022-12-18T08:56:04;30.60;;;15.77;;
20245;SDS011;10281;54.406;18.556;2022-12-18T08:58:31;21.20;;;12.70;;
20245;SDS011;10281;54.406;18.556;2022-12-18T09:01:02;25.97;;;15.57;;
20245;SDS011;10281;54.406;18.556;2022-12-18T09:03:30;23.87;;;14.97;;
20245;SDS011;10281;54.406;18.556;2022-12-18T09:05:57;24.47;;;13.73;;
20245;SDS011;10281;54.406;18.556;2022-12-18T09:08:23;22.60;;;13.37;;
20245;SDS011;10281;54.406;18.556;2022-12-18T09:10:50;39.90;;;23.57;;
20245;SDS011;10281;54.406;18.556;2022-12-18T09:13:17;22.53;;;12.43;;
20245;SDS011;10281;54.406;18.556;2022-12-18T09:15:45;21.30;;;13.30;;
20245;SDS011;10281;54.406;18.556;2022-12-18T09:18:15;20.80;;;12.07;;
20245;SDS011;10281;54.406;18.556;2022-12-18T09:20:43;24.83;;;12.93;;
20245;SDS011;10281;54.406;18.556;2022-12-18T09:23:10;21.47;;;13.43;;
20245;SDS011;10281;54.406;18.556;2022-12-18T09:25:37;20.40;;;13.07;;
20245;SDS011;10281;54.406;18.556;2022-12-18T09:28:06;19.90;;;12.37;;
20245;SDS011;10281;54.406;18.556;2022-12-18T09:30:39;20.60;;;12.63;;
20245;SDS011;10281;54.406;18.556;2022-12-18T09:33:06;23.07;;;12.60;;
20245;SDS011;10281;54.406;18.556;2022-12-18T09:35:36;22.90;;;13.07;;
20245;SDS011;10281;54.406;18.556;2022-12-18T09:38:03;24.63;;;12.37;;
20245;SDS011;10281;54.406;18.556;2022-12-18T09:40:37;20.83;;;11.40;;
20245;SDS011;10281;54.406;18.556;2022-12-18T09:43:09;22.13;;;12.03;;
20245;SDS011;10281;54.406;18.556;2022-12-18T09:45:44;20.80;;;11.63;;
20245;SDS011;10281;54.406;18.556;2022-12-18T09:48:21;21.90;;;12.27;;
20245;SDS011;10281;54.406;18.556;2022-12-18T09:50:50;21.77;;;11.80;;
20245;SDS011;10281;54.406;18.556;2022-12-18T09:53:19;21.17;;;11.83;;
20245;SDS011;10281;54.406;18.556;2022-12-18T09:55:48;25.30;;;12.70;;
20245;SDS011;10281;54.406;18.556;2022-12-18T09:58:19;21.43;;;12.30;;
20245;SDS011;10281;54.406;18.556;2022-12-18T10:01:09;20.83;;;11.73;;
20245;SDS011;10281;54.406;18.556;2022-12-18T10:03:38;24.43;;;12.50;;
20245;SDS011;10281;54.406;18.556;2022-12-18T10:06:14;22.23;;;12.60;;
20245;SDS011;10281;54.406;18.556;2022-12-18T10:08:46;20.70;;;13.60;;
20245;SDS011;10281;54.406;18.556;2022-12-18T10:11:22;22.60;;;13.07;;
20245;SDS011;10281;54.406;18.556;2022-12-18T10:14:13;23.60;;;13.83;;
20245;SDS011;10281;54.406;18.556;2022-12-18T10:16:50;23.17;;;13.03;;
20245;SDS011;10281;54.406;18.556;2022-12-18T10:19:25;24.83;;;13.70;;
20245;SDS011;10281;54.406;18.556;2022-12-18T10:21:58;24.80;;;13.30;;
20245;SDS011;10281;54.406;18.556;2022-12-18T10:24:49;25.10;;;13.53;;
20245;SDS011;10281;54.406;18.556;2022-12-18T10:27:18;25.07;;;12.70;;
20245;SDS011;10281;54.406;18.556;2022-12-18T10:29:46;25.23;;;13.00;;
20245;SDS011;10281;54.406;18.556;2022-12-18T10:32:15;22.87;;;12.30;;
20245;SDS011;10281;54.406;18.556;2022-12-18T10:34:45;23.37;;;12.30;;
20245;SDS011;10281;54.406;18.556;2022-12-18T10:37:16;23.23;;;12.57;;
20245;SDS011;10281;54.406;18.556;2022-12-18T10:39:45;23.07;;;11.87;;
20245;SDS011;10281;54.406;18.556;2022-12-18T10:42:17;23.67;;;12.20;;
20245;SDS011;10281;54.406;18.556;2022-12-18T10:44:45;21.10;;;11.73;;
20245;SDS011;10281;54.406;18.556;2022-12-18T10:47:14;22.33;;;11.20;;
20245;SDS011;10281;54.406;18.556;2022-12-18T10:49:48;19.47;;;10.70;;
20245;SDS011;10281;54.406;18.556;2022-12-18T10:52:17;20.77;;;11.20;;
20245;SDS011;10281;54.406;18.556;2022-12-18T10:54:47;20.23;;;10.77;;
20245;SDS011;10281;54.406;18.556;2022-12-18T10:59:56;19.30;;;10.87;;
20245;SDS011;10281;54.406;18.556;2022-12-18T11:02:33;17.03;;;9.70;;
20245;SDS011;10281;54.406;18.556;2022-12-18T11:05:02;16.13;;;9.03;;
20245;SDS011;10281;54.406;18.556;2022-12-18T11:08:02;16.97;;;9.27;;
20245;SDS011;10281;54.406;18.556;2022-12-18T11:10:17;16.17;;;9.27;;
20245;SDS011;10281;54.406;18.556;2022-12-18T11:12:44;14.70;;;9.03;;
20245;SDS011;10281;54.406;18.556;2022-12-18T11:15:16;18.63;;;10.40;;
20245;SDS011;10281;54.406;18.556;2022-12-18T11:17:47;16.67;;;9.13;;
20245;SDS011;10281;54.406;18.556;2022-12-18T11:23:00;17.33;;;9.10;;
20245;SDS011;10281;54.406;18.556;2022-12-18T11:25:30;14.90;;;8.83;;
20245;SDS011;10281;54.406;18.556;2022-12-18T11:28:00;15.47;;;9.17;;
20245;SDS011;10281;54.406;18.556;2022-12-18T11:30:32;18.03;;;9.77;;
20245;SDS011;10281;54.406;18.556;2022-12-18T11:33:01;18.07;;;8.93;;
20245;SDS011;10281;54.406;18.556;2022-12-18T11:38:23;16.03;;;9.20;;
20245;SDS011;10281;54.406;18.556;2022-12-18T11:46:19;16.63;;;8.17;;
20245;SDS011;10281;54.406;18.556;2022-12-18T11:48:58;20.23;;;10.40;;
20245;SDS011;10281;54.406;18.556;2022-12-18T11:51:33;17.60;;;9.43;;
20245;SDS011;10281;54.406;18.556;2022-12-18T11:54:09;16.00;;;9.80;;
20245;SDS011;10281;54.406;18.556;2022-12-18T11:56:35;15.00;;;8.97;;
20245;SDS011;10281;54.406;18.556;2022-12-18T11:59:08;17.00;;;8.90;;
20245;SDS011;10281;54.406;18.556;2022-12-18T12:01:48;17.70;;;9.73;;
20245;SDS011;10281;54.406;18.556;2022-12-18T12:07:05;13.93;;;7.77;;
20245;SDS011;10281;54.406;18.556;2022-12-18T12:09:39;14.77;;;8.50;;
20245;SDS011;10281;54.406;18.556;2022-12-18T12:12:16;14.17;;;7.60;;
20245;SDS011;10281;54.406;18.556;2022-12-18T12:14:49;14.80;;;8.43;;
20245;SDS011;10281;54.406;18.556;2022-12-18T12:17:23;15.07;;;8.70;;
20245;SDS011;10281;54.406;18.556;2022-12-18T12:19:56;13.07;;;7.87;;
20245;SDS011;10281;54.406;18.556;2022-12-18T12:22:49;13.40;;;8.03;;
20245;SDS011;10281;54.406;18.556;2022-12-18T12:25:37;14.23;;;7.87;;
20245;SDS011;10281;54.406;18.556;2022-12-18T12:34:20;12.23;;;7.20;;
20245;SDS011;10281;54.406;18.556;2022-12-18T12:36:41;11.50;;;6.87;;
20245;SDS011;10281;54.406;18.556;2022-12-18T12:39:09;15.10;;;7.63;;
20245;SDS011;10281;54.406;18.556;2022-12-18T12:41:38;12.30;;;7.30;;
20245;SDS011;10281;54.406;18.556;2022-12-18T12:44:14;12.17;;;7.13;;
20245;SDS011;10281;54.406;18.556;2022-12-18T12:46:44;12.60;;;7.27;;
20245;SDS011;10281;54.406;18.556;2022-12-18T12:49:14;12.27;;;6.87;;
20245;SDS011;10281;54.406;18.556;2022-12-18T12:51:44;12.37;;;6.93;;
20245;SDS011;10281;54.406;18.556;2022-12-18T12:54:17;12.97;;;7.60;;
20245;SDS011;10281;54.406;18.556;2022-12-18T12:56:49;11.30;;;7.00;;
20245;SDS011;10281;54.406;18.556;2022-12-18T12:59:22;11.23;;;6.30;;
20245;SDS011;10281;54.406;18.556;2022-12-18T13:04:47;10.70;;;6.63;;
20245;SDS011;10281;54.406;18.556;2022-12-18T13:07:18;11.97;;;7.10;;
20245;SDS011;10281;54.406;18.556;2022-12-18T13:10:26;10.17;;;6.07;;
20245;SDS011;10281;54.406;18.556;2022-12-18T13:15:23;10.63;;;5.93;;
20245;SDS011;10281;54.406;18.556;2022-12-18T13:18:24;11.40;;;6.90;;
20245;SDS011;10281;54.406;18.556;2022-12-18T13:21:02;12.90;;;7.40;;
20245;SDS011;10281;54.406;18.556;2022-12-18T13:23:34;11.90;;;7.50;;
20245;SDS011;10281;54.406;18.556;2022-12-18T13:28:57;12.27;;;7.83;;
20245;SDS011;10281;54.406;18.556;2022-12-18T13:34:21;12.17;;;7.63;;
20245;SDS011;10281;54.406;18.556;2022-12-18T13:36:50;11.43;;;6.77;;
20245;SDS011;10281;54.406;18.556;2022-12-18T13:39:22;11.03;;;7.10;;
20245;SDS011;10281;54.406;18.556;2022-12-18T13:41:52;14.03;;;7.00;;
20245;SDS011;10281;54.406;18.556;2022-12-18T13:44:32;11.67;;;6.20;;
20245;SDS011;10281;54.406;18.556;2022-12-18T13:47:01;10.63;;;6.63;;
20245;SDS011;10281;54.406;18.556;2022-12-18T13:49:36;13.00;;;8.23;;
20245;SDS011;10281;54.406;18.556;2022-12-18T13:52:14;12.00;;;6.80;;
20245;SDS011;10281;54.406;18.556;2022-12-18T13:54:39;14.97;;;8.33;;
20245;SDS011;10281;54.406;18.556;2022-12-18T13:57:25;24.63;;;13.00;;
20245;SDS011;10281;54.406;18.556;2022-12-18T13:59:43;13.60;;;10.60;;
20245;SDS011;10281;54.406;18.556;2022-12-18T14:02:14;12.67;;;8.30;;
20245;SDS011;10281;54.406;18.556;2022-12-18T14:04:44;12.17;;;8.50;;
20245;SDS011;10281;54.406;18.556;2022-12-18T14:07:12;14.43;;;9.57;;
20245;SDS011;10281;54.406;18.556;2022-12-18T14:09:43;18.33;;;10.27;;
20245;SDS011;10281;54.406;18.556;2022-12-18T14:12:16;19.33;;;13.13;;
20245;SDS011;10281;54.406;18.556;2022-12-18T14:14:52;16.40;;;10.13;;
20245;SDS011;10281;54.406;18.556;2022-12-18T14:17:19;13.93;;;9.87;;
20245;SDS011;10281;54.406;18.556;2022-12-18T14:19:48;14.90;;;8.77;;
20245;SDS011;10281;54.406;18.556;2022-12-18T14:22:17;15.00;;;9.07;;
20245;SDS011;10281;54.406;18.556;2022-12-18T14:24:47;14.60;;;9.27;;
20245;SDS011;10281;54.406;18.556;2022-12-18T14:27:20;12.60;;;8.20;;
20245;SDS011;10281;54.406;18.556;2022-12-18T14:29:48;13.00;;;8.10;;
20245;SDS011;10281;54.406;18.556;2022-12-18T14:32:16;10.67;;;7.23;;
20245;SDS011;10281;54.406;18.556;2022-12-18T14:34:49;15.73;;;8.90;;
20245;SDS011;10281;54.406;18.556;2022-12-18T14:37:20;14.77;;;7.63;;
20245;SDS011;10281;54.406;18.556;2022-12-18T14:39:53;14.43;;;7.90;;
20245;SDS011;10281;54.406;18.556;2022-12-18T14:42:22;12.30;;;7.47;;
20245;SDS011;10281;54.406;18.556;2022-12-18T14:44:48;14.40;;;8.67;;
20245;SDS011;10281;54.406;18.556;2022-12-18T14:47:15;11.67;;;7.57;;
20245;SDS011;10281;54.406;18.556;2022-12-18T14:49:42;13.97;;;7.70;;
20245;SDS011;10281;54.406;18.556;2022-12-18T14:52:17;13.57;;;7.90;;
20245;SDS011;10281;54.406;18.556;2022-12-18T14:54:46;13.47;;;8.30;;
20245;SDS011;10281;54.406;18.556;2022-12-18T14:57:20;13.97;;;7.90;;
20245;SDS011;10281;54.406;18.556;2022-12-18T14:59:49;13.47;;;7.93;;
20245;SDS011;10281;54.406;18.556;2022-12-18T15:02:22;15.27;;;8.90;;
20245;SDS011;10281;54.406;18.556;2022-12-18T15:07:39;16.33;;;9.00;;
20245;SDS011;10281;54.406;18.556;2022-12-18T15:10:08;14.07;;;8.20;;
20245;SDS011;10281;54.406;18.556;2022-12-18T15:12:39;12.73;;;8.27;;